createdAt,value
2019-04-30T00:01:17.015Z,5.35
2019-04-30T00:04:16.457Z,5.20
2019-04-30T00:07:15.522Z,5.83
2019-04-30T00:10:10.833Z,5.85
2019-04-30T00:13:10.509Z,5.17
2019-04-30T00:16:05.373Z,5.78
2019-04-30T00:19:01.717Z,6.30
2019-04-30T00:22:00.270Z,6.15
2019-04-30T00:24:55.665Z,5.37
2019-04-30T00:27:51.392Z,6.42
2019-04-30T00:30:47.790Z,6.40
2019-04-30T00:33:45.514Z,5.80
2019-04-30T00:36:41.039Z,6.45
2019-04-30T00:39:37.382Z,5.42
2019-04-30T00:42:35.682Z,5.87
2019-04-30T00:45:35.371Z,5.78
2019-04-30T00:48:31.359Z,5.78
2019-04-30T00:51:27.082Z,5.83
2019-04-30T00:54:27.971Z,5.60
2019-04-30T00:57:21.891Z,5.78
2019-04-30T01:00:25.066Z,5.33
2019-04-30T01:03:21.681Z,5.05
2019-04-30T01:06:26.758Z,5.70
2019-04-30T01:09:16.010Z,6.35
2019-04-30T01:12:11.425Z,5.60
2019-04-30T01:15:11.183Z,6.12
2019-04-30T01:18:05.056Z,5.62
2019-04-30T01:21:02.912Z,5.33
2019-04-30T01:23:59.128Z,5.95
2019-04-30T01:26:55.679Z,5.03
2019-04-30T01:29:52.307Z,6.05
2019-04-30T01:33:01.948Z,5.17
2019-04-30T01:35:56.923Z,5.90
2019-04-30T01:38:53.971Z,5.62
2019-04-30T01:41:50.540Z,5.55
2019-04-30T01:44:50.495Z,5.45
2019-04-30T01:47:44.390Z,4.80
2019-04-30T01:50:42.179Z,5.22
2019-04-30T01:53:38.840Z,4.90
2019-04-30T01:56:59.609Z,5.35
2019-04-30T02:00:29.602Z,5.08
2019-04-30T02:03:25.158Z,5.60
2019-04-30T02:06:21.798Z,5.35
2019-04-30T02:09:18.831Z,5.50
2019-04-30T02:12:16.652Z,5.47
2019-04-30T02:15:12.323Z,4.67
2019-04-30T02:18:08.766Z,4.65
2019-04-30T02:21:05.171Z,5.12
2019-04-30T02:24:01.941Z,5.30
2019-04-30T02:26:59.472Z,6.05
2019-04-30T02:29:55.601Z,5.10
2019-04-30T02:32:53.555Z,5.22
2019-04-30T02:35:56.874Z,5.35
2019-04-30T02:38:54.084Z,5.17
2019-04-30T02:41:50.914Z,5.22
2019-04-30T02:44:50.436Z,5.40
2019-04-30T02:47:46.389Z,6.03
2019-04-30T02:50:44.672Z,6.17
2019-04-30T02:54:23.971Z,5.90
2019-04-30T02:57:23.122Z,6.03
2019-04-30T03:00:20.366Z,6.17
2019-04-30T03:03:20.303Z,5.95
2019-04-30T03:06:14.828Z,6.50
2019-04-30T03:09:11.397Z,6.28
2019-04-30T03:12:08.655Z,5.70
2019-04-30T03:15:03.910Z,6.20
2019-04-30T03:18:10.335Z,5.40
2019-04-30T03:21:09.816Z,5.60
2019-04-30T03:24:06.786Z,5.87
2019-04-30T03:27:03.136Z,5.70
2019-04-30T03:30:00.130Z,6.37
2019-04-30T03:32:57.316Z,6.08
2019-04-30T03:35:55.084Z,5.72
2019-04-30T03:38:51.809Z,6.00
2019-04-30T03:41:50.189Z,5.75
2019-04-30T03:44:45.452Z,5.92
2019-04-30T03:47:43.226Z,6.40
2019-04-30T03:50:50.348Z,6.12
2019-04-30T03:53:36.024Z,6.03
2019-04-30T03:56:31.740Z,5.65
2019-04-30T03:59:30.090Z,6.00
2019-04-30T04:02:42.246Z,6.70
2019-04-30T04:06:03.122Z,6.37
2019-04-30T04:09:03.822Z,6.65
2019-04-30T04:12:20.465Z,6.15
2019-04-30T04:15:16.314Z,5.70
2019-04-30T04:18:12.811Z,6.35
2019-04-30T04:21:16.395Z,6.00
2019-04-30T04:24:06.806Z,5.85
2019-04-30T04:27:02.659Z,5.80
2019-04-30T04:30:00.742Z,5.47
2019-04-30T04:32:55.091Z,6.20
2019-04-30T04:35:51.420Z,5.95
2019-04-30T04:38:50.416Z,5.95
2019-04-30T04:41:45.055Z,5.78
2019-04-30T04:44:43.378Z,5.55
2019-04-30T04:47:40.158Z,5.87
2019-04-30T04:50:36.979Z,5.75
2019-04-30T04:53:33.626Z,6.05
2019-04-30T04:56:31.307Z,5.70
2019-04-30T04:59:29.688Z,5.40
2019-04-30T05:02:49.558Z,5.35
2019-04-30T05:05:44.603Z,5.28
2019-04-30T05:08:42.300Z,4.75
2019-04-30T05:11:39.573Z,5.50
2019-04-30T05:14:36.182Z,5.87
2019-04-30T05:17:32.053Z,5.83
2019-04-30T05:20:29.295Z,5.53
2019-04-30T05:26:48.773Z,5.70
2019-04-30T05:29:45.383Z,5.40
2019-04-30T05:32:40.837Z,5.70
2019-04-30T05:35:38.873Z,5.20
2019-04-30T05:38:34.669Z,5.78
2019-04-30T05:41:38.964Z,5.70
2019-04-30T05:44:35.337Z,5.83
2019-04-30T05:47:32.012Z,5.95
2019-04-30T05:50:29.595Z,5.83
2019-04-30T05:53:25.978Z,5.22
2019-04-30T05:56:39.497Z,5.70
2019-04-30T05:59:50.715Z,5.42
2019-04-30T06:02:47.159Z,5.33
2019-04-30T06:05:46.178Z,5.22
2019-04-30T06:08:50.055Z,5.90
2019-04-30T06:12:18.762Z,5.20
2019-04-30T06:15:23.540Z,5.72
2019-04-30T06:18:23.427Z,5.45
2019-04-30T06:21:21.586Z,5.12
2019-04-30T06:24:18.854Z,5.78
2019-04-30T06:27:15.579Z,5.37
2019-04-30T06:30:13.150Z,5.65
2019-04-30T06:33:09.320Z,6.12
2019-04-30T06:36:06.179Z,6.42
2019-04-30T06:39:01.489Z,5.50
2019-04-30T06:42:06.439Z,5.62
2019-04-30T06:44:59.043Z,5.40
2019-04-30T06:47:56.597Z,5.53
2019-04-30T06:50:53.129Z,5.80
2019-04-30T06:53:51.339Z,5.50
2019-04-30T06:56:48.538Z,5.97
2019-04-30T06:59:45.330Z,6.00
2019-04-30T07:02:41.900Z,6.08
2019-04-30T07:05:39.079Z,6.22
2019-04-30T07:08:59.531Z,5.45
2019-04-30T07:12:02.696Z,5.90
2019-04-30T07:14:59.276Z,5.33
2019-04-30T07:17:54.849Z,5.42
2019-04-30T07:20:52.790Z,5.62
2019-04-30T07:23:48.561Z,6.08
2019-04-30T07:26:44.517Z,5.90
2019-04-30T07:29:40.156Z,6.22
2019-04-30T07:32:35.746Z,6.80
2019-04-30T07:35:32.197Z,5.92
2019-04-30T07:38:29.513Z,6.28
2019-04-30T07:41:25.660Z,6.40
2019-04-30T07:44:32.693Z,6.10
2019-04-30T07:47:19.769Z,6.60
2019-04-30T07:50:16.473Z,6.50
2019-04-30T07:53:12.544Z,5.10
2019-04-30T07:56:24.378Z,5.67
2019-04-30T07:59:06.764Z,5.73
2019-04-30T08:02:10.883Z,5.87
2019-04-30T08:05:10.563Z,6.03
2019-04-30T08:08:20.126Z,5.60
2019-04-30T08:11:05.977Z,5.93
2019-04-30T08:14:01.484Z,5.53
2019-04-30T08:16:58.940Z,5.90
2019-04-30T08:19:54.265Z,5.73
2019-04-30T08:22:50.582Z,6.20
2019-04-30T08:25:48.733Z,8.63
2019-04-30T08:28:43.381Z,6.53
2019-04-30T08:31:40.696Z,8.10
2019-04-30T08:34:35.581Z,6.47
2019-04-30T08:37:31.690Z,8.53
2019-04-30T08:40:29.737Z,6.40
2019-04-30T08:43:25.699Z,6.97
2019-04-30T08:46:23.216Z,5.60
2019-04-30T08:49:19.861Z,6.30
2019-04-30T08:52:16.397Z,6.27
2019-04-30T08:55:16.648Z,6.70
2019-04-30T08:58:12.442Z,6.00
2019-04-30T09:01:06.087Z,6.50
2019-04-30T09:04:02.254Z,6.67
2019-04-30T09:06:59.957Z,7.00
2019-04-30T09:09:55.155Z,6.20
2019-04-30T09:12:51.976Z,7.23
2019-04-30T09:15:49.232Z,6.80
2019-04-30T09:18:46.707Z,7.33
2019-04-30T09:21:42.121Z,5.90
2019-04-30T09:24:39.210Z,7.10
2019-04-30T09:27:35.594Z,6.03
2019-04-30T09:30:31.886Z,6.17
2019-04-30T09:33:29.263Z,5.93
2019-04-30T09:36:24.619Z,6.93
2019-04-30T09:39:23.245Z,7.53
2019-04-30T09:42:19.584Z,5.77
2019-04-30T09:45:16.253Z,6.43
2019-04-30T09:48:11.987Z,6.17
2019-04-30T09:51:08.199Z,6.43
2019-04-30T09:54:05.228Z,5.87
2019-04-30T09:57:01.340Z,6.87
2019-04-30T09:59:57.575Z,6.60
2019-04-30T10:02:53.979Z,6.83
2019-04-30T10:05:50.240Z,6.40
2019-04-30T10:08:49.265Z,5.90
2019-04-30T10:11:53.487Z,6.90
2019-04-30T10:14:49.441Z,6.50
2019-04-30T10:17:45.833Z,6.93
2019-04-30T10:20:43.770Z,7.67
2019-04-30T10:23:39.251Z,6.90
2019-04-30T10:26:36.050Z,6.10
2019-04-30T10:29:32.681Z,6.77
2019-04-30T10:32:29.983Z,6.40
2019-04-30T10:35:29.457Z,6.23
2019-04-30T10:38:25.326Z,7.07
2019-04-30T10:41:20.697Z,6.80
2019-04-30T10:44:15.889Z,6.70
2019-04-30T10:47:12.281Z,7.23
2019-04-30T10:50:09.924Z,6.40
2019-04-30T10:53:06.181Z,6.87
2019-04-30T10:56:02.195Z,7.30
2019-04-30T10:58:58.569Z,6.60
2019-04-30T11:01:55.669Z,6.57
2019-04-30T11:04:51.184Z,6.77
2019-04-30T11:07:49.525Z,7.10
2019-04-30T11:10:45.921Z,6.73
2019-04-30T11:13:41.901Z,7.03
2019-04-30T11:16:37.956Z,6.17
2019-04-30T11:19:36.061Z,6.80
2019-04-30T11:22:32.484Z,7.70
2019-04-30T11:25:31.338Z,6.33
2019-04-30T11:28:27.411Z,6.70
2019-04-30T11:31:52.177Z,6.70
2019-04-30T11:34:48.195Z,7.37
2019-04-30T11:37:43.669Z,7.30
2019-04-30T11:40:40.186Z,7.03
2019-04-30T11:43:36.163Z,7.37
2019-04-30T11:47:11.415Z,6.97
2019-04-30T11:50:13.643Z,6.33
2019-04-30T11:53:22.622Z,7.03
2019-04-30T11:56:06.337Z,8.33
2019-04-30T11:59:01.721Z,6.67
2019-04-30T12:01:58.817Z,7.17
2019-04-30T12:04:54.185Z,7.57
2019-04-30T12:08:05.923Z,6.50
2019-04-30T12:11:04.550Z,7.10
2019-04-30T12:14:00.081Z,8.67
2019-04-30T12:16:56.328Z,7.57
2019-04-30T12:19:51.600Z,7.50
2019-04-30T12:22:49.352Z,7.10
2019-04-30T12:25:45.586Z,6.83
2019-04-30T12:28:41.614Z,6.77
2019-04-30T12:31:38.596Z,6.90
2019-04-30T12:34:34.829Z,6.93
2019-04-30T12:37:29.829Z,7.43
2019-04-30T12:40:31.710Z,7.07
2019-04-30T12:43:24.061Z,7.40
2019-04-30T12:46:21.309Z,7.03
2019-04-30T12:49:19.010Z,7.63
2019-04-30T12:52:20.504Z,7.40
2019-04-30T12:55:34.986Z,7.03
2019-04-30T12:58:30.236Z,7.47
2019-04-30T13:01:31.689Z,6.83
2019-04-30T13:04:24.167Z,7.60
2019-04-30T13:07:21.519Z,6.40
2019-04-30T13:10:17.962Z,8.00
2019-04-30T13:13:14.586Z,7.87
2019-04-30T13:16:10.699Z,6.83
2019-04-30T13:19:06.624Z,7.53
2019-04-30T13:22:02.172Z,7.23
2019-04-30T13:24:59.389Z,7.73
2019-04-30T13:27:58.034Z,7.37
2019-04-30T13:30:53.466Z,7.43
2019-04-30T13:33:53.556Z,7.10
2019-04-30T13:36:50.526Z,8.00
2019-04-30T13:39:53.722Z,6.87
2019-04-30T13:42:50.152Z,7.00
2019-04-30T13:45:45.625Z,7.33
2019-04-30T13:48:41.834Z,7.27
2019-04-30T13:51:37.161Z,7.67
2019-04-30T13:54:32.826Z,7.80
2019-04-30T13:57:28.097Z,7.33
2019-04-30T14:00:26.361Z,8.10
2019-04-30T14:03:29.125Z,6.73
2019-04-30T14:06:26.575Z,6.83
2019-04-30T14:09:26.117Z,7.37
2019-04-30T14:12:22.100Z,7.40
2019-04-30T14:15:20.297Z,7.10
2019-04-30T14:18:27.939Z,7.60
2019-04-30T14:21:12.947Z,6.90
2019-04-30T14:24:09.523Z,7.50
2019-04-30T14:27:05.087Z,7.50
2019-04-30T14:30:01.088Z,7.00
2019-04-30T14:32:56.362Z,7.43
2019-04-30T14:35:53.209Z,7.37
2019-04-30T14:38:50.627Z,7.33
2019-04-30T14:41:51.078Z,6.57
2019-04-30T14:44:45.256Z,7.83
2019-04-30T14:47:54.495Z,7.30
2019-04-30T14:50:50.556Z,7.43
2019-04-30T14:53:54.356Z,7.00
2019-04-30T14:56:55.989Z,6.70
2019-04-30T15:00:08.801Z,6.80
2019-04-30T15:03:09.455Z,6.77
2019-04-30T15:06:04.770Z,6.77
2019-04-30T15:09:00.318Z,6.13
2019-04-30T15:11:55.979Z,6.97
2019-04-30T15:14:52.487Z,6.83
2019-04-30T15:17:49.362Z,6.50
2019-04-30T15:20:45.728Z,6.93
2019-04-30T15:23:58.723Z,6.57
2019-04-30T15:26:46.448Z,6.50
2019-04-30T15:29:42.773Z,6.50
2019-04-30T15:32:41.297Z,6.33
2019-04-30T15:35:36.863Z,6.57
2019-04-30T15:38:51.010Z,6.40
2019-04-30T15:41:47.177Z,6.13
2019-04-30T15:44:45.435Z,5.97
2019-04-30T15:47:39.708Z,6.30
2019-04-30T15:50:35.579Z,6.57
2019-04-30T15:53:31.642Z,6.27
2019-04-30T15:56:39.948Z,7.40
2019-04-30T15:59:39.477Z,6.30
2019-04-30T16:02:56.830Z,6.30
2019-04-30T16:05:51.862Z,6.83
2019-04-30T16:09:00.613Z,6.13
2019-04-30T16:12:14.127Z,6.00
2019-04-30T16:15:14.361Z,6.13
2019-04-30T16:18:11.201Z,6.03
2019-04-30T16:21:11.035Z,6.43
2019-04-30T16:24:13.903Z,5.93
2019-04-30T16:27:11.119Z,6.17
2019-04-30T16:30:09.513Z,6.33
2019-04-30T16:33:09.563Z,5.70
2019-04-30T16:36:09.110Z,6.77
2019-04-30T16:39:15.939Z,6.50
2019-04-30T16:42:14.726Z,6.23
2019-04-30T16:45:11.068Z,6.13
2019-04-30T16:48:07.455Z,5.57
2019-04-30T16:51:08.715Z,5.80
2019-04-30T16:54:05.043Z,6.27
2019-04-30T16:57:06.110Z,5.30
2019-04-30T16:59:59.394Z,6.60
2019-04-30T17:03:01.308Z,6.00
2019-04-30T17:06:02.718Z,5.87
2019-04-30T17:09:06.956Z,6.07
2019-04-30T17:12:12.456Z,5.70
2019-04-30T17:15:19.133Z,5.93
2019-04-30T17:18:15.138Z,6.53
2019-04-30T17:21:12.761Z,6.90
2019-04-30T17:24:08.938Z,5.50
2019-04-30T17:27:16.349Z,6.13
2019-04-30T17:30:03.245Z,6.33
2019-04-30T17:32:59.759Z,6.13
2019-04-30T17:35:56.172Z,6.10
2019-04-30T17:38:52.125Z,6.43
2019-04-30T17:41:49.553Z,6.30
2019-04-30T17:44:56.431Z,6.23
2019-04-30T17:47:42.889Z,6.13
2019-04-30T17:50:39.751Z,6.80
2019-04-30T17:53:38.907Z,6.08
2019-04-30T17:56:34.722Z,6.97
2019-04-30T17:59:30.256Z,6.47
2019-04-30T18:02:29.419Z,7.10
2019-04-30T18:05:25.684Z,6.80
2019-04-30T18:08:22.393Z,6.07
2019-04-30T18:11:20.070Z,6.65
2019-04-30T18:14:16.209Z,6.50
2019-04-30T18:17:14.247Z,7.42
2019-04-30T18:20:23.601Z,7.15
2019-04-30T18:23:38.794Z,6.72
2019-04-30T18:26:37.731Z,6.78
2019-04-30T18:29:34.279Z,6.40
2019-04-30T18:32:30.881Z,7.00
2019-04-30T18:35:28.614Z,7.33
2019-04-30T18:38:24.474Z,7.17
2019-04-30T18:41:20.809Z,7.55
2019-04-30T18:44:19.049Z,7.40
2019-04-30T18:47:14.673Z,7.22
2019-04-30T18:50:12.277Z,8.28
2019-04-30T18:53:18.542Z,8.23
2019-04-30T18:56:15.027Z,9.63
2019-04-30T18:59:11.245Z,9.18
2019-04-30T19:02:10.204Z,9.20
2019-04-30T19:05:09.548Z,9.50
2019-04-30T19:08:10.439Z,9.45
2019-04-30T19:11:23.547Z,7.83
2019-04-30T19:14:39.544Z,8.08
2019-04-30T19:17:52.727Z,7.92
2019-04-30T19:20:51.509Z,8.28
2019-04-30T19:23:48.756Z,8.78
2019-04-30T19:26:45.481Z,9.00
2019-04-30T19:29:42.545Z,9.08
2019-04-30T19:32:39.453Z,9.30
2019-04-30T19:35:36.076Z,9.03
2019-04-30T19:38:35.965Z,7.37
2019-04-30T19:41:31.825Z,7.87
2019-04-30T19:44:29.387Z,7.87
2019-04-30T19:47:25.975Z,8.05
2019-04-30T19:50:22.473Z,8.60
2019-04-30T19:53:21.987Z,8.60
2019-04-30T19:56:16.217Z,9.30
2019-04-30T19:59:12.722Z,9.50
2019-04-30T20:02:10.657Z,9.90
2019-04-30T20:05:09.012Z,8.40
2019-04-30T20:08:05.959Z,8.95
2019-04-30T20:11:02.701Z,8.98
2019-04-30T20:13:58.983Z,9.30
2019-04-30T20:16:55.517Z,9.53
2019-04-30T20:19:51.523Z,10.30
2019-04-30T20:22:47.635Z,11.35
2019-04-30T20:25:44.350Z,12.25
2019-04-30T20:28:42.553Z,13.53
2019-04-30T20:31:38.610Z,12.07
2019-04-30T20:34:35.120Z,12.25
2019-04-30T20:37:31.241Z,12.45
2019-04-30T20:40:42.693Z,12.15
2019-04-30T20:43:28.610Z,13.18
2019-04-30T20:46:34.661Z,13.78
2019-04-30T20:49:21.840Z,14.83
2019-04-30T20:52:20.709Z,14.83
2019-04-30T20:55:16.697Z,16.07
2019-04-30T20:58:13.255Z,16.97
2019-04-30T21:01:12.028Z,15.18
2019-04-30T21:04:08.455Z,14.03
2019-04-30T21:07:04.980Z,14.15
2019-04-30T21:10:01.695Z,14.73
2019-04-30T21:12:58.323Z,15.85
2019-04-30T21:15:55.130Z,18.05
2019-04-30T21:18:50.831Z,14.45
2019-04-30T21:21:46.917Z,13.72
2019-04-30T21:24:44.014Z,15.83
2019-04-30T21:27:40.165Z,19.00
2019-04-30T21:30:36.895Z,19.02
2019-04-30T21:33:41.215Z,18.12
2019-04-30T21:36:39.553Z,16.97
2019-04-30T21:39:35.326Z,17.52
2019-04-30T21:42:31.266Z,19.48
2019-04-30T21:45:31.381Z,20.57
2019-04-30T21:48:28.786Z,23.45
2019-04-30T21:51:26.719Z,20.02
2019-04-30T21:54:22.733Z,20.25
2019-04-30T21:57:19.217Z,23.38
2019-04-30T22:00:21.296Z,22.25
2019-04-30T22:03:19.715Z,21.77
2019-04-30T22:06:15.551Z,21.15
2019-04-30T22:09:12.232Z,18.75
2019-04-30T22:12:10.421Z,19.20
2019-04-30T22:15:07.523Z,17.77
2019-04-30T22:18:04.383Z,17.65
2019-04-30T22:21:01.174Z,16.00
2019-04-30T22:23:57.821Z,16.05
2019-04-30T22:26:54.167Z,16.32
2019-04-30T22:29:50.273Z,15.72
2019-04-30T22:32:46.126Z,15.90
2019-04-30T22:35:57.648Z,17.52
2019-04-30T22:39:13.385Z,17.62
2019-04-30T22:42:36.512Z,17.35
2019-04-30T22:45:38.258Z,17.23
2019-04-30T22:48:35.773Z,17.45
2019-04-30T22:51:34.424Z,18.42
2019-04-30T22:54:30.389Z,16.27
2019-04-30T22:57:27.101Z,17.27
2019-04-30T23:00:41.513Z,16.62
2019-04-30T23:03:37.757Z,17.15
2019-04-30T23:06:33.622Z,17.60
2019-04-30T23:09:29.981Z,16.27
2019-04-30T23:12:26.882Z,16.67
2019-04-30T23:15:23.853Z,17.60
2019-04-30T23:18:19.780Z,17.90
2019-04-30T23:21:15.321Z,18.07
2019-04-30T23:24:12.054Z,18.35
2019-04-30T23:27:08.632Z,17.95
2019-04-30T23:30:04.201Z,17.30
2019-04-30T23:33:00.134Z,17.45
2019-04-30T23:35:56.485Z,17.27
2019-04-30T23:38:52.534Z,17.07
2019-04-30T23:41:48.905Z,17.32
2019-04-30T23:44:45.179Z,16.35
2019-04-30T23:47:41.750Z,17.85
2019-04-30T23:50:38.551Z,17.42
2019-04-30T23:53:34.955Z,18.87
2019-04-30T23:56:31.710Z,17.37
2019-04-30T23:59:28.288Z,18.02
